sensor_id;sensor_type;location;lat;lon;timestamp;pressure;altitude;pressure_sealevel;temperature;humidity
75699;BME280;64313;51.018;13.742;2022-12-18T00:02:08;101256.34;;;-5.69;73.29
75699;BME280;64313;51.018;13.742;2022-12-18T00:04:36;101258.88;;;-5.67;72.54
75699;BME280;64313;51.018;13.742;2022-12-18T00:07:01;101265.97;;;-5.71;72.57
75699;BME280;64313;51.018;13.742;2022-12-18T00:09:27;101265.13;;;-5.71;73.20
75699;BME280;64313;51.018;13.742;2022-12-18T00:11:53;101266.91;;;-5.73;72.92
75699;BME280;64313;51.018;13.742;2022-12-18T00:14:18;101273.03;;;-5.74;72.99
75699;BME280;64313;51.018;13.742;2022-12-18T00:16:44;101276.50;;;-5.74;72.88
75699;BME280;64313;51.018;13.742;2022-12-18T00:19:11;101279.16;;;-5.75;72.86
75699;BME280;64313;51.018;13.742;2022-12-18T00:21:36;101286.94;;;-5.75;72.62
75699;BME280;64313;51.018;13.742;2022-12-18T00:24:01;101292.28;;;-5.78;72.69
75699;BME280;64313;51.018;13.742;2022-12-18T00:26:29;101279.31;;;-5.80;73.26
75699;BME280;64313;51.018;13.742;2022-12-18T00:29:11;101273.38;;;-5.83;73.49
75699;BME280;64313;51.018;13.742;2022-12-18T00:31:37;101283.06;;;-5.87;73.46
75699;BME280;64313;51.018;13.742;2022-12-18T00:34:03;101286.72;;;-5.93;74.16
75699;BME280;64313;51.018;13.742;2022-12-18T00:36:31;101282.56;;;-5.97;73.44
75699;BME280;64313;51.018;13.742;2022-12-18T00:38:58;101293.94;;;-5.99;73.40
75699;BME280;64313;51.018;13.742;2022-12-18T00:41:24;101290.47;;;-6.00;73.39
75699;BME280;64313;51.018;13.742;2022-12-18T00:44:09;101298.13;;;-5.95;73.49
75699;BME280;64313;51.018;13.742;2022-12-18T00:46:35;101300.84;;;-5.98;72.61
75699;BME280;64313;51.018;13.742;2022-12-18T00:49:01;101308.75;;;-6.01;72.50
75699;BME280;64313;51.018;13.742;2022-12-18T00:51:26;101312.44;;;-6.07;72.65
75699;BME280;64313;51.018;13.742;2022-12-18T00:53:52;101310.72;;;-6.08;73.10
75699;BME280;64313;51.018;13.742;2022-12-18T00:56:18;101300.41;;;-6.11;72.69
75699;BME280;64313;51.018;13.742;2022-12-18T00:58:43;101297.13;;;-6.16;73.37
75699;BME280;64313;51.018;13.742;2022-12-18T01:01:09;101302.38;;;-6.18;73.36
75699;BME280;64313;51.018;13.742;2022-12-18T01:03:34;101308.47;;;-6.17;73.67
75699;BME280;64313;51.018;13.742;2022-12-18T01:06:08;101316.25;;;-6.17;72.23
75699;BME280;64313;51.018;13.742;2022-12-18T01:08:34;101317.25;;;-6.21;71.39
75699;BME280;64313;51.018;13.742;2022-12-18T01:11:00;101322.34;;;-6.18;71.99
75699;BME280;64313;51.018;13.742;2022-12-18T01:13:25;101318.16;;;-6.22;71.06
75699;BME280;64313;51.018;13.742;2022-12-18T01:15:51;101325.19;;;-6.24;71.93
75699;BME280;64313;51.018;13.742;2022-12-18T01:18:17;101321.78;;;-6.26;71.95
75699;BME280;64313;51.018;13.742;2022-12-18T01:20:42;101326.16;;;-6.28;72.01
75699;BME280;64313;51.018;13.742;2022-12-18T01:23:07;101326.38;;;-6.35;71.18
75699;BME280;64313;51.018;13.742;2022-12-18T01:25:35;101330.25;;;-6.46;71.54
75699;BME280;64313;51.018;13.742;2022-12-18T01:28:01;101331.41;;;-6.55;71.73
75699;BME280;64313;51.018;13.742;2022-12-18T01:30:26;101332.03;;;-6.48;72.75
75699;BME280;64313;51.018;13.742;2022-12-18T01:32:52;101338.06;;;-6.48;71.72
75699;BME280;64313;51.018;13.742;2022-12-18T01:35:18;101337.44;;;-6.55;71.29
75699;BME280;64313;51.018;13.742;2022-12-18T01:37:43;101339.28;;;-6.58;71.41
75699;BME280;64313;51.018;13.742;2022-12-18T01:40:09;101333.22;;;-6.59;71.96
75699;BME280;64313;51.018;13.742;2022-12-18T01:42:34;101330.53;;;-6.56;72.44
75699;BME280;64313;51.018;13.742;2022-12-18T01:47:41;101314.28;;;-6.62;72.25
75699;BME280;64313;51.018;13.742;2022-12-18T01:50:15;101325.66;;;-6.65;72.43
75699;BME280;64313;51.018;13.742;2022-12-18T01:52:42;101322.13;;;-6.64;72.30
75699;BME280;64313;51.018;13.742;2022-12-18T01:55:09;101326.78;;;-6.73;72.02
75699;BME280;64313;51.018;13.742;2022-12-18T01:57:35;101328.50;;;-6.72;72.79
75699;BME280;64313;51.018;13.742;2022-12-18T02:00:06;101337.06;;;-6.70;72.43
75699;BME280;64313;51.018;13.742;2022-12-18T02:02:39;101338.97;;;-6.76;72.01
75699;BME280;64313;51.018;13.742;2022-12-18T02:05:05;101346.75;;;-6.76;72.36
75699;BME280;64313;51.018;13.742;2022-12-18T02:07:44;101347.69;;;-6.77;72.38
75699;BME280;64313;51.018;13.742;2022-12-18T02:10:37;101346.06;;;-6.81;71.68
75699;BME280;64313;51.018;13.742;2022-12-18T02:13:12;101341.63;;;-6.77;72.76
75699;BME280;64313;51.018;13.742;2022-12-18T02:15:51;101343.28;;;-6.75;71.78
75699;BME280;64313;51.018;13.742;2022-12-18T02:18:24;101330.41;;;-6.78;71.28
75699;BME280;64313;51.018;13.742;2022-12-18T02:26:29;101337.78;;;-6.93;70.98
75699;BME280;64313;51.018;13.742;2022-12-18T02:29:00;101342.16;;;-6.94;71.16
75699;BME280;64313;51.018;13.742;2022-12-18T02:31:33;101350.69;;;-6.90;71.66
75699;BME280;64313;51.018;13.742;2022-12-18T02:34:03;101349.78;;;-6.88;71.48
75699;BME280;64313;51.018;13.742;2022-12-18T02:36:36;101351.44;;;-6.85;71.39
75699;BME280;64313;51.018;13.742;2022-12-18T02:39:05;101353.13;;;-6.84;71.15
75699;BME280;64313;51.018;13.742;2022-12-18T02:41:32;101341.88;;;-6.85;71.11
75699;BME280;64313;51.018;13.742;2022-12-18T02:44:00;101335.97;;;-6.90;70.74
75699;BME280;64313;51.018;13.742;2022-12-18T02:51:55;101344.31;;;-7.08;71.29
75699;BME280;64313;51.018;13.742;2022-12-18T02:54:26;101341.91;;;-7.14;71.36
75699;BME280;64313;51.018;13.742;2022-12-18T02:56:58;101346.38;;;-7.18;71.40
75699;BME280;64313;51.018;13.742;2022-12-18T02:59:35;101349.91;;;-7.21;71.82
75699;BME280;64313;51.018;13.742;2022-12-18T03:02:31;101355.00;;;-7.18;71.81
75699;BME280;64313;51.018;13.742;2022-12-18T03:05:14;101348.19;;;-7.22;71.34
75699;BME280;64313;51.018;13.742;2022-12-18T03:10:27;101346.53;;;-7.24;71.72
75699;BME280;64313;51.018;13.742;2022-12-18T03:13:01;101348.22;;;-7.23;71.75
75699;BME280;64313;51.018;13.742;2022-12-18T03:15:35;101355.00;;;-7.18;72.12
75699;BME280;64313;51.018;13.742;2022-12-18T03:18:15;101356.75;;;-7.18;71.95
75699;BME280;64313;51.018;13.742;2022-12-18T03:20:43;101360.91;;;-7.12;71.48
75699;BME280;64313;51.018;13.742;2022-12-18T03:23:16;101353.34;;;-7.20;71.03
75699;BME280;64313;51.018;13.742;2022-12-18T03:25:47;101350.81;;;-7.23;70.74
75699;BME280;64313;51.018;13.742;2022-12-18T03:28:18;101357.00;;;-7.27;70.93
75699;BME280;64313;51.018;13.742;2022-12-18T03:30:49;101363.16;;;-7.30;71.49
75699;BME280;64313;51.018;13.742;2022-12-18T03:33:52;101359.75;;;-7.32;71.33
75699;BME280;64313;51.018;13.742;2022-12-18T03:36:18;101358.06;;;-7.33;71.10
75699;BME280;64313;51.018;13.742;2022-12-18T03:38:43;101369.31;;;-7.34;71.34
75699;BME280;64313;51.018;13.742;2022-12-18T03:44:29;101359.72;;;-7.30;72.03
75699;BME280;64313;51.018;13.742;2022-12-18T03:47:04;101364.03;;;-7.31;70.86
75699;BME280;64313;51.018;13.742;2022-12-18T03:49:47;101365.84;;;-7.33;71.24
75699;BME280;64313;51.018;13.742;2022-12-18T03:52:17;101364.91;;;-7.30;71.57
75699;BME280;64313;51.018;13.742;2022-12-18T03:54:46;101366.72;;;-7.34;70.86
75699;BME280;64313;51.018;13.742;2022-12-18T03:57:20;101367.72;;;-7.38;71.40
75699;BME280;64313;51.018;13.742;2022-12-18T03:59:56;101359.22;;;-7.43;71.16
75699;BME280;64313;51.018;13.742;2022-12-18T04:02:28;101371.38;;;-7.45;71.22
75699;BME280;64313;51.018;13.742;2022-12-18T04:04:59;101369.66;;;-7.46;71.56
75699;BME280;64313;51.018;13.742;2022-12-18T04:07:27;101373.16;;;-7.47;71.53
75699;BME280;64313;51.018;13.742;2022-12-18T04:09:56;101370.56;;;-7.47;71.87
75699;BME280;64313;51.018;13.742;2022-12-18T04:12:25;101365.47;;;-7.50;71.38
75699;BME280;64313;51.018;13.742;2022-12-18T04:14:51;101375.75;;;-7.47;71.83
75699;BME280;64313;51.018;13.742;2022-12-18T04:17:17;101374.91;;;-7.48;71.48
75699;BME280;64313;51.018;13.742;2022-12-18T04:19:42;101383.56;;;-7.47;72.09
75699;BME280;64313;51.018;13.742;2022-12-18T04:22:10;101380.97;;;-7.47;71.93
75699;BME280;64313;51.018;13.742;2022-12-18T04:24:41;101382.66;;;-7.46;72.37
75699;BME280;64313;51.018;13.742;2022-12-18T04:27:17;101389.59;;;-7.47;72.14
75699;BME280;64313;51.018;13.742;2022-12-18T04:29:47;101392.31;;;-7.51;72.12
75699;BME280;64313;51.018;13.742;2022-12-18T04:32:13;101386.97;;;-7.45;72.11
75699;BME280;64313;51.018;13.742;2022-12-18T04:34:41;101381.94;;;-7.51;71.20
75699;BME280;64313;51.018;13.742;2022-12-18T04:37:07;101384.63;;;-7.54;71.31
75699;BME280;64313;51.018;13.742;2022-12-18T04:39:33;101385.53;;;-7.55;71.49
75699;BME280;64313;51.018;13.742;2022-12-18T04:42:04;101385.56;;;-7.57;71.35
75699;BME280;64313;51.018;13.742;2022-12-18T04:44:30;101400.28;;;-7.57;71.46
75699;BME280;64313;51.018;13.742;2022-12-18T04:46:55;101397.63;;;-7.56;71.62
75699;BME280;64313;51.018;13.742;2022-12-18T04:49:21;101399.38;;;-7.56;71.38
75699;BME280;64313;51.018;13.742;2022-12-18T04:51:46;101403.69;;;-7.55;71.31
75699;BME280;64313;51.018;13.742;2022-12-18T04:54:11;101409.69;;;-7.53;71.90
75699;BME280;64313;51.018;13.742;2022-12-18T04:56:37;101406.19;;;-7.52;71.42
75699;BME280;64313;51.018;13.742;2022-12-18T04:59:02;101400.22;;;-7.56;71.13
75699;BME280;64313;51.018;13.742;2022-12-18T05:01:27;101398.50;;;-7.55;71.77
75699;BME280;64313;51.018;13.742;2022-12-18T05:03:53;101385.66;;;-7.62;71.40
75699;BME280;64313;51.018;13.742;2022-12-18T05:06:18;101390.03;;;-7.62;71.40
75699;BME280;64313;51.018;13.742;2022-12-18T05:08:43;101400.44;;;-7.64;71.46
75699;BME280;64313;51.018;13.742;2022-12-18T05:11:11;101402.25;;;-7.66;71.59
75699;BME280;64313;51.018;13.742;2022-12-18T05:13:37;101398.66;;;-7.62;71.88
75699;BME280;64313;51.018;13.742;2022-12-18T05:16:03;101402.78;;;-7.54;71.32
75699;BME280;64313;51.018;13.742;2022-12-18T05:18:29;101386.56;;;-7.63;71.82
75699;BME280;64313;51.018;13.742;2022-12-18T05:20:55;101397.09;;;-7.67;71.66
75699;BME280;64313;51.018;13.742;2022-12-18T05:23:22;101398.94;;;-7.71;71.79
75699;BME280;64313;51.018;13.742;2022-12-18T05:25:52;101397.06;;;-7.66;71.97
75699;BME280;64313;51.018;13.742;2022-12-18T05:28:18;101399.69;;;-7.67;72.40
75699;BME280;64313;51.018;13.742;2022-12-18T05:30:48;101402.19;;;-7.64;72.30
75699;BME280;64313;51.018;13.742;2022-12-18T05:33:14;101390.13;;;-7.67;72.45
75699;BME280;64313;51.018;13.742;2022-12-18T05:35:40;101398.84;;;-7.68;72.38
75699;BME280;64313;51.018;13.742;2022-12-18T05:38:05;101402.31;;;-7.69;73.12
75699;BME280;64313;51.018;13.742;2022-12-18T05:40:30;101403.97;;;-7.66;72.93
75699;BME280;64313;51.018;13.742;2022-12-18T05:42:55;101396.88;;;-7.59;73.19
75699;BME280;64313;51.018;13.742;2022-12-18T05:45:21;101395.09;;;-7.57;73.10
75699;BME280;64313;51.018;13.742;2022-12-18T05:47:46;101404.56;;;-7.56;72.93
75699;BME280;64313;51.018;13.742;2022-12-18T05:50:11;101401.09;;;-7.55;72.71
75699;BME280;64313;51.018;13.742;2022-12-18T05:52:37;101402.69;;;-7.51;73.06
75699;BME280;64313;51.018;13.742;2022-12-18T05:55:02;101398.28;;;-7.48;72.91
75699;BME280;64313;51.018;13.742;2022-12-18T05:57:28;101394.75;;;-7.45;72.71
75699;BME280;64313;51.018;13.742;2022-12-18T05:59:53;101405.97;;;-7.43;73.12
75699;BME280;64313;51.018;13.742;2022-12-18T06:02:18;101412.94;;;-7.45;72.94
75699;BME280;64313;51.018;13.742;2022-12-18T06:04:46;101412.09;;;-7.46;72.67
75699;BME280;64313;51.018;13.742;2022-12-18T06:07:11;101413.78;;;-7.45;73.09
75699;BME280;64313;51.018;13.742;2022-12-18T06:09:36;101415.53;;;-7.45;73.08
75699;BME280;64313;51.018;13.742;2022-12-18T06:12:02;101419.91;;;-7.47;73.14
75699;BME280;64313;51.018;13.742;2022-12-18T06:14:27;101426.00;;;-7.48;72.95
75699;BME280;64313;51.018;13.742;2022-12-18T06:16:52;101425.94;;;-7.47;72.62
75699;BME280;64313;51.018;13.742;2022-12-18T06:19:18;101414.69;;;-7.46;72.86
75699;BME280;64313;51.018;13.742;2022-12-18T06:21:43;101427.59;;;-7.44;72.92
75699;BME280;64313;51.018;13.742;2022-12-18T06:24:08;101425.06;;;-7.46;73.10
75699;BME280;64313;51.018;13.742;2022-12-18T06:26:37;101433.81;;;-7.48;72.88
75699;BME280;64313;51.018;13.742;2022-12-18T06:29:02;101425.94;;;-7.47;72.99
75699;BME280;64313;51.018;13.742;2022-12-18T06:31:28;101427.69;;;-7.47;72.68
75699;BME280;64313;51.018;13.742;2022-12-18T06:33:53;101423.34;;;-7.47;72.78
75699;BME280;64313;51.018;13.742;2022-12-18T06:36:18;101437.91;;;-7.41;73.11
75699;BME280;64313;51.018;13.742;2022-12-18T06:38:44;101440.38;;;-7.36;73.29
75699;BME280;64313;51.018;13.742;2022-12-18T06:41:15;101434.34;;;-7.37;72.33
75699;BME280;64313;51.018;13.742;2022-12-18T06:43:41;101429.34;;;-7.43;72.14
75699;BME280;64313;51.018;13.742;2022-12-18T06:49:54;101431.31;;;-7.53;73.07
75699;BME280;64313;51.018;13.742;2022-12-18T06:52:19;101439.13;;;-7.54;72.64
75699;BME280;64313;51.018;13.742;2022-12-18T06:54:44;101439.16;;;-7.56;72.80
75699;BME280;64313;51.018;13.742;2022-12-18T06:57:10;101442.66;;;-7.57;73.01
75699;BME280;64313;51.018;13.742;2022-12-18T06:59:35;101451.31;;;-7.56;72.99
75699;BME280;64313;51.018;13.742;2022-12-18T07:02:01;101454.75;;;-7.56;72.81
75699;BME280;64313;51.018;13.742;2022-12-18T07:04:29;101458.22;;;-7.55;72.73
75699;BME280;64313;51.018;13.742;2022-12-18T07:06:55;101452.97;;;-7.54;72.83
75699;BME280;64313;51.018;13.742;2022-12-18T07:09:20;101462.59;;;-7.57;72.92
75699;BME280;64313;51.018;13.742;2022-12-18T07:11:45;101460.88;;;-7.58;72.87
75699;BME280;64313;51.018;13.742;2022-12-18T07:14:11;101466.97;;;-7.59;72.40
75699;BME280;64313;51.018;13.742;2022-12-18T07:16:36;101460.97;;;-7.62;72.72
75699;BME280;64313;51.018;13.742;2022-12-18T07:19:01;101467.91;;;-7.62;72.33
75699;BME280;64313;51.018;13.742;2022-12-18T07:21:27;101461.03;;;-7.63;72.20
75699;BME280;64313;51.018;13.742;2022-12-18T07:23:52;101455.69;;;-7.58;72.73
75699;BME280;64313;51.018;13.742;2022-12-18T07:26:20;101461.75;;;-7.58;72.19
75699;BME280;64313;51.018;13.742;2022-12-18T07:28:45;101476.44;;;-7.58;72.47
75699;BME280;64313;51.018;13.742;2022-12-18T07:31:13;101466.06;;;-7.58;72.79
75699;BME280;64313;51.018;13.742;2022-12-18T07:33:40;101470.47;;;-7.60;72.41
75699;BME280;64313;51.018;13.742;2022-12-18T07:36:07;101479.94;;;-7.58;72.49
75699;BME280;64313;51.018;13.742;2022-12-18T07:38:34;101485.16;;;-7.59;72.18
75699;BME280;64313;51.018;13.742;2022-12-18T07:41:04;101491.16;;;-7.57;72.25
75699;BME280;64313;51.018;13.742;2022-12-18T07:43:31;101485.16;;;-7.59;72.52
75699;BME280;64313;51.018;13.742;2022-12-18T07:45:57;101494.78;;;-7.63;72.50
75699;BME280;64313;51.018;13.742;2022-12-18T07:48:22;101491.28;;;-7.64;73.01
75699;BME280;64313;51.018;13.742;2022-12-18T07:50:47;101493.88;;;-7.64;73.06
75699;BME280;64313;51.018;13.742;2022-12-18T07:53:13;101493.88;;;-7.64;73.24
75699;BME280;64313;51.018;13.742;2022-12-18T07:55:39;101500.81;;;-7.63;73.17
75699;BME280;64313;51.018;13.742;2022-12-18T07:58:06;101503.34;;;-7.61;73.42
75699;BME280;64313;51.018;13.742;2022-12-18T08:00:32;101503.22;;;-7.56;73.41
75699;BME280;64313;51.018;13.742;2022-12-18T08:02:57;101500.53;;;-7.52;73.67
75699;BME280;64313;51.018;13.742;2022-12-18T08:05:23;101489.13;;;-7.46;73.72
75699;BME280;64313;51.018;13.742;2022-12-18T08:07:49;101484.63;;;-7.40;73.77
75699;BME280;64313;51.018;13.742;2022-12-18T08:10:14;101480.19;;;-7.36;74.07
75699;BME280;64313;51.018;13.742;2022-12-18T08:12:40;101486.84;;;-7.26;73.94
75699;BME280;64313;51.018;13.742;2022-12-18T08:15:06;101481.56;;;-7.23;74.28
75699;BME280;64313;51.018;13.742;2022-12-18T08:17:31;101481.41;;;-7.16;74.03
75699;BME280;64313;51.018;13.742;2022-12-18T08:19:57;101475.13;;;-7.09;74.21
75699;BME280;64313;51.018;13.742;2022-12-18T08:22:22;101469.00;;;-7.07;74.12
75699;BME280;64313;51.018;13.742;2022-12-18T08:24:48;101474.06;;;-7.02;73.87
75699;BME280;64313;51.018;13.742;2022-12-18T08:27:13;101467.88;;;-6.98;74.86
75699;BME280;64313;51.018;13.742;2022-12-18T08:29:39;101466.91;;;-6.94;74.14
75699;BME280;64313;51.018;13.742;2022-12-18T08:32:04;101473.66;;;-6.88;74.68
75699;BME280;64313;51.018;13.742;2022-12-18T08:34:30;101477.84;;;-6.83;74.88
75699;BME280;64313;51.018;13.742;2022-12-18T08:36:55;101475.97;;;-6.78;74.82
75699;BME280;64313;51.018;13.742;2022-12-18T08:39:20;101475.81;;;-6.73;75.47
75699;BME280;64313;51.018;13.742;2022-12-18T08:41:46;101471.31;;;-6.68;75.65
75699;BME280;64313;51.018;13.742;2022-12-18T08:44:32;101478.13;;;-6.62;75.16
75699;BME280;64313;51.018;13.742;2022-12-18T08:47:04;101480.53;;;-6.56;75.68
75699;BME280;64313;51.018;13.742;2022-12-18T08:49:30;101482.00;;;-6.47;76.22
75699;BME280;64313;51.018;13.742;2022-12-18T08:51:56;101480.13;;;-6.42;75.75
75699;BME280;64313;51.018;13.742;2022-12-18T08:54:22;101488.56;;;-6.36;75.71
75699;BME280;64313;51.018;13.742;2022-12-18T08:56:47;101479.78;;;-6.32;76.08
75699;BME280;64313;51.018;13.742;2022-12-18T08:59:15;101489.97;;;-6.25;75.99
75699;BME280;64313;51.018;13.742;2022-12-18T09:01:40;101499.31;;;-6.18;76.57
75699;BME280;64313;51.018;13.742;2022-12-18T09:04:05;101496.53;;;-6.12;76.41
75699;BME280;64313;51.018;13.742;2022-12-18T09:06:31;101494.63;;;-6.07;76.05
75699;BME280;64313;51.018;13.742;2022-12-18T09:08:57;101490.91;;;-6.00;75.54
75699;BME280;64313;51.018;13.742;2022-12-18T09:11:26;101480.31;;;-5.94;75.72
75699;BME280;64313;51.018;13.742;2022-12-18T09:13:53;101482.72;;;-5.89;76.02
75699;BME280;64313;51.018;13.742;2022-12-18T09:16:19;101497.28;;;-5.83;75.64
75699;BME280;64313;51.018;13.742;2022-12-18T09:18:46;101504.97;;;-5.79;75.49
75699;BME280;64313;51.018;13.742;2022-12-18T09:21:14;101508.28;;;-5.75;75.54
75699;BME280;64313;51.018;13.742;2022-12-18T09:23:39;101515.97;;;-5.71;75.59
75699;BME280;64313;51.018;13.742;2022-12-18T09:26:05;101528.84;;;-5.66;75.70
75699;BME280;64313;51.018;13.742;2022-12-18T09:28:30;101524.44;;;-5.64;75.46
75699;BME280;64313;51.018;13.742;2022-12-18T09:30:56;101526.09;;;-5.61;75.63
75699;BME280;64313;51.018;13.742;2022-12-18T09:33:21;101515.53;;;-5.57;75.69
75699;BME280;64313;51.018;13.742;2022-12-18T09:35:46;101517.94;;;-5.52;75.19
75699;BME280;64313;51.018;13.742;2022-12-18T09:38:18;101516.94;;;-5.48;76.61
75699;BME280;64313;51.018;13.742;2022-12-18T09:40:52;101525.41;;;-5.41;75.81
75699;BME280;64313;51.018;13.742;2022-12-18T09:43:25;101519.97;;;-5.35;75.72
75699;BME280;64313;51.018;13.742;2022-12-18T09:45:56;101517.25;;;-5.32;75.49
75699;BME280;64313;51.018;13.742;2022-12-18T09:48:27;101507.53;;;-5.27;75.97
75699;BME280;64313;51.018;13.742;2022-12-18T09:50:57;101518.66;;;-5.22;76.46
75699;BME280;64313;51.018;13.742;2022-12-18T09:53:27;101501.09;;;-5.17;75.91
75699;BME280;64313;51.018;13.742;2022-12-18T09:55:54;101504.28;;;-5.09;75.64
75699;BME280;64313;51.018;13.742;2022-12-18T09:58:35;101511.88;;;-5.03;76.16
75699;BME280;64313;51.018;13.742;2022-12-18T10:01:13;101504.63;;;-4.94;75.90
75699;BME280;64313;51.018;13.742;2022-12-18T10:03:39;101494.00;;;-4.88;76.04
75699;BME280;64313;51.018;13.742;2022-12-18T10:06:15;101493.75;;;-4.82;75.52
75699;BME280;64313;51.018;13.742;2022-12-18T10:08:49;101486.59;;;-4.77;76.43
75699;BME280;64313;51.018;13.742;2022-12-18T10:14:29;101473.81;;;-4.61;75.92
75699;BME280;64313;51.018;13.742;2022-12-18T10:25:01;101446.00;;;-4.39;76.18
75699;BME280;64313;51.018;13.742;2022-12-18T10:27:30;101443.16;;;-4.32;75.78
75699;BME280;64313;51.018;13.742;2022-12-18T10:29:56;101442.97;;;-4.28;75.99
75699;BME280;64313;51.018;13.742;2022-12-18T10:32:24;101440.09;;;-4.22;75.99
75699;BME280;64313;51.018;13.742;2022-12-18T10:34:52;101428.50;;;-4.15;76.40
75699;BME280;64313;51.018;13.742;2022-12-18T10:37:21;101421.34;;;-4.09;76.11
75699;BME280;64313;51.018;13.742;2022-12-18T10:40:06;101418.41;;;-4.02;75.46
75699;BME280;64313;51.018;13.742;2022-12-18T10:42:32;101420.00;;;-3.98;75.30
75699;BME280;64313;51.018;13.742;2022-12-18T10:45:09;101419.72;;;-3.92;75.56
75699;BME280;64313;51.018;13.742;2022-12-18T10:47:35;101402.94;;;-3.86;75.05
75699;BME280;64313;51.018;13.742;2022-12-18T10:50:01;101406.19;;;-3.81;75.16
75699;BME280;64313;51.018;13.742;2022-12-18T10:52:27;101400.72;;;-3.75;74.62
75699;BME280;64313;51.018;13.742;2022-12-18T10:54:55;101419.66;;;-3.70;74.60
75699;BME280;64313;51.018;13.742;2022-12-18T10:57:37;101409.88;;;-3.64;74.16
75699;BME280;64313;51.018;13.742;2022-12-18T11:00:29;101410.66;;;-3.62;74.51
75699;BME280;64313;51.018;13.742;2022-12-18T11:02:56;101407.94;;;-3.61;74.20
75699;BME280;64313;51.018;13.742;2022-12-18T11:05:29;101407.75;;;-3.56;73.86
75699;BME280;64313;51.018;13.742;2022-12-18T11:07:55;101410.22;;;-3.53;74.33
75699;BME280;64313;51.018;13.742;2022-12-18T11:10:23;101412.78;;;-3.52;74.05
75699;BME280;64313;51.018;13.742;2022-12-18T11:12:50;101408.25;;;-3.48;73.98
75699;BME280;64313;51.018;13.742;2022-12-18T11:15:22;101400.31;;;-3.45;73.92
75699;BME280;64313;51.018;13.742;2022-12-18T11:17:50;101392.38;;;-3.43;74.05
75699;BME280;64313;51.018;13.742;2022-12-18T11:20:31;101395.66;;;-3.38;73.75
75699;BME280;64313;51.018;13.742;2022-12-18T11:23:12;101387.75;;;-3.37;73.65
75699;BME280;64313;51.018;13.742;2022-12-18T11:25:38;101383.31;;;-3.35;73.93
75699;BME280;64313;51.018;13.742;2022-12-18T11:31:24;101385.69;;;-3.30;73.67
75699;BME280;64313;51.018;13.742;2022-12-18T11:33:58;101385.56;;;-3.27;73.31
75699;BME280;64313;51.018;13.742;2022-12-18T11:36:29;101388.97;;;-3.25;73.50
75699;BME280;64313;51.018;13.742;2022-12-18T11:38:59;101384.44;;;-3.21;73.13
75699;BME280;64313;51.018;13.742;2022-12-18T11:41:35;101380.00;;;-3.19;73.40
75699;BME280;64313;51.018;13.742;2022-12-18T11:44:26;101379.91;;;-3.18;73.41
75699;BME280;64313;51.018;13.742;2022-12-18T11:47:00;101381.63;;;-3.17;72.79
75699;BME280;64313;51.018;13.742;2022-12-18T11:49:29;101381.63;;;-3.17;73.13
75699;BME280;64313;51.018;13.742;2022-12-18T11:52:18;101394.50;;;-3.12;74.64
75699;BME280;64313;51.018;13.742;2022-12-18T11:54:44;101382.06;;;-3.07;74.14
75699;BME280;64313;51.018;13.742;2022-12-18T11:57:32;101392.22;;;-3.01;74.90
75699;BME280;64313;51.018;13.742;2022-12-18T12:00:11;101401.53;;;-2.95;74.62
75699;BME280;64313;51.018;13.742;2022-12-18T12:03:07;101399.81;;;-2.95;75.00
75699;BME280;64313;51.018;13.742;2022-12-18T12:09:44;101396.88;;;-2.89;72.98
75699;BME280;64313;51.018;13.742;2022-12-18T12:12:05;101397.81;;;-2.90;72.82
75699;BME280;64313;51.018;13.742;2022-12-18T12:14:51;101409.19;;;-2.91;72.72
75699;BME280;64313;51.018;13.742;2022-12-18T12:17:42;101406.50;;;-2.89;72.42
75699;BME280;64313;51.018;13.742;2022-12-18T12:21:09;101410.03;;;-2.90;71.88
75699;BME280;64313;51.018;13.742;2022-12-18T12:23:27;101416.03;;;-2.88;72.59
75699;BME280;64313;51.018;13.742;2022-12-18T12:26:06;101415.13;;;-2.87;72.16
75699;BME280;64313;51.018;13.742;2022-12-18T12:28:56;101409.91;;;-2.87;72.02
75699;BME280;64313;51.018;13.742;2022-12-18T12:32:16;101409.91;;;-2.87;72.15
75699;BME280;64313;51.018;13.742;2022-12-18T12:34:34;101416.78;;;-2.85;72.08
75699;BME280;64313;51.018;13.742;2022-12-18T12:37:31;101421.22;;;-2.87;71.82
75699;BME280;64313;51.018;13.742;2022-12-18T12:40:02;101427.28;;;-2.86;71.74
75699;BME280;64313;51.018;13.742;2022-12-18T12:43:02;101429.91;;;-2.86;71.69
75699;BME280;64313;51.018;13.742;2022-12-18T12:46:10;101429.91;;;-2.86;71.51
75699;BME280;64313;51.018;13.742;2022-12-18T12:48:46;101440.38;;;-2.86;71.80
75699;BME280;64313;51.018;13.742;2022-12-18T12:51:21;101425.50;;;-2.86;71.18
75699;BME280;64313;51.018;13.742;2022-12-18T12:53:49;101411.66;;;-2.88;71.08
75699;BME280;64313;51.018;13.742;2022-12-18T12:56:18;101409.03;;;-2.88;71.48
75699;BME280;64313;51.018;13.742;2022-12-18T13:01:22;101420.44;;;-2.89;71.12
75699;BME280;64313;51.018;13.742;2022-12-18T13:06:39;101406.50;;;-2.89;70.73
75699;BME280;64313;51.018;13.742;2022-12-18T13:09:07;101404.78;;;-2.90;70.71
75699;BME280;64313;51.018;13.742;2022-12-18T13:11:43;101410.03;;;-2.90;70.92
75699;BME280;64313;51.018;13.742;2022-12-18T13:14:36;101401.19;;;-2.88;70.95
75699;BME280;64313;51.018;13.742;2022-12-18T13:20:04;101390.50;;;-2.83;70.55
75699;BME280;64313;51.018;13.742;2022-12-18T13:22:32;101396.69;;;-2.84;69.98
75699;BME280;64313;51.018;13.742;2022-12-18T13:24:59;101395.06;;;-2.87;69.81
75699;BME280;64313;51.018;13.742;2022-12-18T13:38:24;101409.75;;;-2.84;69.65
75699;BME280;64313;51.018;13.742;2022-12-18T13:40:59;101402.13;;;-2.89;69.62
75699;BME280;64313;51.018;13.742;2022-12-18T13:43:39;101401.47;;;-2.94;70.07
75699;BME280;64313;51.018;13.742;2022-12-18T13:49:06;101408.84;;;-3.02;70.64
75699;BME280;64313;51.018;13.742;2022-12-18T13:51:46;101404.66;;;-3.06;70.36
75699;BME280;64313;51.018;13.742;2022-12-18T13:56:56;101395.34;;;-3.12;70.81
75699;BME280;64313;51.018;13.742;2022-12-18T14:06:51;101400.47;;;-3.29;71.08
75699;BME280;64313;51.018;13.742;2022-12-18T14:09:24;101394.59;;;-3.34;71.30